Helas — C4AZ2 — position and weather

sailwx.info

Track history (hours):
 
Tides and Currents Weather Stations Pressure Air Temp Water Temp Dewpoint Dewpoint Depression Visibility Wind Speed Wind Dir Waves Ship Positions

Helas

Last reported at 2017-Sep-22 02:00 UTC. Time now 2017-Sep-24 17:56 UTC.
Position N 50°28' W 000°22'.

Length 89 m; draft 5.7 m.

Type: Cargo ship. MMSI: 210031000.

Date/timePositionNaut miles runAvg speedWind from/ knotsBaromVisibWave heightAir tempDewpointWater temp
2017-Sep-22 02:00N 50°28' W 000°22'510.4
2017-Sep-22 01:30N 50°30' W 000°14'5 9.9
2017-Sep-22 01:00N 50°31' W 000°07'5 9.3
2017-Sep-22 00:30N 50°32' E 000°00'4 8.6
2017-Sep-22 00:00N 50°34' E 000°07'4 7.9
2017-Sep-21 23:30N 50°34' E 000°13'4 7.4
2017-Sep-21 23:00N 50°36' E 000°19'3 6.8
2017-Sep-21 22:30N 50°37' E 000°24'3 6.3
2017-Sep-21 22:00N 50°38' E 000°29'3 6.4
2017-Sep-21 21:30N 50°38' E 000°33'3 6.9
2017-Sep-21 21:00N 50°40' E 000°38'4 7.5
2017-Sep-21 20:30N 50°42' E 000°43'4 8.3
2017-Sep-21 20:00N 50°45' E 000°48'5 9.3
2017-Sep-21 19:30N 50°47' E 000°54'2921.9
2017-Sep-21 18:12N 51°05' E 001°30'6 7.1
2017-Sep-21 17:19N 51°01' E 001°22'3 9.4
2017-Sep-21 17:00N 51°03' E 001°26'4 8.8
2017-Sep-21 16:30N 51°06' E 001°31'4 7.7
2017-Sep-21 16:00N 51°08' E 001°35'3 6.9
2017-Sep-21 15:30N 51°11' E 001°40'3 6.5
2017-Sep-21 15:00N 51°13' E 001°43'3 6.5
2017-Sep-21 14:30N 51°15' E 001°47'3 6.0
2017-Sep-21 14:00N 51°18' E 001°49'3 6.0
2017-Sep-21 13:30N 51°21' E 001°51'3 6.2
2017-Sep-21 13:00N 51°23' E 001°53'3 6.8
2017-Sep-21 12:30N 51°26' E 001°55'4 7.7
2017-Sep-21 12:00N 51°29' E 001°59'4 8.6
2017-Sep-21 11:30N 51°32' E 002°04'5 9.0
2017-Sep-21 11:00N 51°36' E 002°09'910.1
2017-Sep-21 10:05N 51°43' E 002°19'49 9.7
2017-Sep-21 04:57N 52°18' E 003°15'5 8.0
2017-Sep-21 04:22N 52°20' E 003°22'3 7.6
2017-Sep-21 03:59N 52°22' E 003°26'4 7.4
2017-Sep-21 03:28N 52°24' E 003°31'4 7.2
2017-Sep-21 02:58N 52°26' E 003°36'4 7.1
2017-Sep-21 02:26N 52°28' E 003°42'5 7.1
2017-Sep-21 01:44N 52°30' E 003°49'2 7.5
2017-Sep-21 01:27N 52°31' E 003°52'4 8.1
2017-Sep-21 01:00N 52°31' E 003°58'4 8.5
2017-Sep-21 00:29N 52°31' E 004°05'4 8.8
2017-Sep-21 00:00N 52°31' E 004°12'5 9.0
2017-Sep-20 23:28N 52°30' E 004°20'4 9.1
2017-Sep-20 23:00N 52°29' E 004°27'4 8.7
2017-Sep-20 22:30N 52°28' E 004°34'1 2.8
2017-Sep-20 22:00N 52°28' E 004°36'1 1.1
2017-Sep-20 21:31N 52°28' E 004°37'1 1.4
2017-Sep-20 21:00N 52°28' E 004°38'0 0.1
2017-Sep-20 20:29N 52°28' E 004°38'0 0.0
2017-Sep-20 19:59N 52°28' E 004°38'0 0.0
2017-Sep-20 19:29N 52°28' E 004°38'0 0.0
2017-Sep-20 18:59N 52°28' E 004°38'0 0.0
2017-Sep-20 18:29N 52°28' E 004°38'0 0.0
2017-Sep-20 17:59N 52°28' E 004°38'0 0.0
2017-Sep-20 17:26N 52°28' E 004°38'0 0.0
2017-Sep-20 16:59N 52°28' E 004°38'0 0.0
2017-Sep-20 16:29N 52°28' E 004°38'0 0.0
2017-Sep-20 15:59N 52°28' E 004°38'0 0.0
2017-Sep-20 15:29N 52°28' E 004°38'0 0.0
2017-Sep-20 14:56N 52°28' E 004°38'0 0.0
2017-Sep-20 13:59N 52°28' E 004°38'0 0.0
2017-Sep-20 13:29N 52°28' E 004°38'0 0.0
2017-Sep-20 12:59N 52°28' E 004°38'0 0.0
2017-Sep-20 12:29N 52°28' E 004°38'0 0.0
2017-Sep-20 11:59N 52°28' E 004°38'0 0.0
2017-Sep-20 11:29N 52°28' E 004°38'0 0.0
2017-Sep-20 10:56N 52°28' E 004°38'0 0.0
2017-Sep-20 10:29N 52°28' E 004°38'0 0.0
2017-Sep-20 09:56N 52°28' E 004°38'0 0.0
2017-Sep-20 09:29N 52°28' E 004°38'0 0.0
2017-Sep-20 08:59N 52°28' E 004°38'0 0.0
2017-Sep-20 08:29N 52°28' E 004°38'0 0.0
2017-Sep-20 07:59N 52°28' E 004°38'0 0.0
2017-Sep-20 07:29N 52°28' E 004°38'0 0.0
2017-Sep-20 06:59N 52°28' E 004°38'0 0.0
2017-Sep-20 06:28N 52°28' E 004°38'0 0.0
2017-Sep-20 05:58N 52°28' E 004°38'0 0.0
2017-Sep-20 05:25N 52°28' E 004°38'0 0.0
2017-Sep-20 04:58N 52°28' E 004°38'0 0.0
2017-Sep-20 04:28N 52°28' E 004°38'0 0.0
2017-Sep-20 03:58N 52°28' E 004°38'0 0.0
2017-Sep-20 03:28N 52°28' E 004°38'0 0.0
2017-Sep-20 02:55N 52°28' E 004°38'0 0.0
2017-Sep-20 02:28N 52°28' E 004°38'0 0.0
2017-Sep-20 01:58N 52°28' E 004°38'0 0.0
2017-Sep-20 01:28N 52°28' E 004°38'0 0.0
2017-Sep-20 00:58N 52°28' E 004°38'0 0.0
2017-Sep-20 00:28N 52°28' E 004°38'0 0.0
2017-Sep-19 23:58N 52°28' E 004°38'0 0.0
2017-Sep-19 23:28N 52°28' E 004°38'0 0.0
2017-Sep-19 22:58N 52°28' E 004°38'0 0.0
2017-Sep-19 22:28N 52°28' E 004°38'0 0.0
2017-Sep-19 21:58N 52°28' E 004°38'0 0.0
2017-Sep-19 21:28N 52°28' E 004°38'0 0.0
2017-Sep-19 20:58N 52°28' E 004°38'0 0.0
2017-Sep-19 20:25N 52°28' E 004°38'0 0.0
2017-Sep-19 19:58N 52°28' E 004°38'0 0.0
2017-Sep-19 18:56N 52°28' E 004°38'0 0.0
2017-Sep-19 18:29N 52°28' E 004°38'0 0.0
2017-Sep-19 17:59N 52°28' E 004°38'0 0.0
2017-Sep-19 17:29N 52°28' E 004°38'0 0.0
2017-Sep-19 16:59N 52°28' E 004°38'0 0.0
2017-Sep-19 16:29N 52°28' E 004°38'0 0.0
2017-Sep-19 15:59N 52°28' E 004°38'0 0.0
2017-Sep-19 15:29N 52°28' E 004°38'0 0.0
2017-Sep-19 14:56N 52°28' E 004°38'0 0.0
2017-Sep-19 14:28N 52°28' E 004°38'0 0.0
2017-Sep-19 13:58N 52°28' E 004°38'0 0.0
2017-Sep-19 13:28N 52°28' E 004°38'0 0.0
2017-Sep-19 12:58N 52°28' E 004°38'0 0.0
2017-Sep-19 12:28N 52°28' E 004°38'0 0.0
2017-Sep-19 11:58N 52°28' E 004°38'0 0.0
2017-Sep-19 11:28N 52°28' E 004°38'0 0.0
2017-Sep-19 10:55N 52°28' E 004°38'0 0.0
2017-Sep-19 10:28N 52°28' E 004°38'0 0.0
2017-Sep-19 09:58N 52°28' E 004°38'0 0.0
2017-Sep-19 09:28N 52°28' E 004°38'0 0.0
2017-Sep-19 08:58N 52°28' E 004°38'0 0.0
2017-Sep-19 08:28N 52°28' E 004°38'0 0.0
2017-Sep-19 07:55N 52°28' E 004°38'0 1.2
2017-Sep-19 07:30N 52°28' E 004°37'1 1.9
2017-Sep-19 07:01N 52°28' E 004°36'1 1.0
2017-Sep-19 06:28N 52°28' E 004°36'0 0.0
2017-Sep-19 05:58N 52°28' E 004°36'0 0.0
2017-Sep-19 05:28N 52°28' E 004°36'0 0.0
2017-Sep-19 04:58N 52°28' E 004°36'0 0.0
2017-Sep-19 04:28N 52°28' E 004°36'0 0.0
2017-Sep-19 03:58N 52°28' E 004°36'0 0.0
2017-Sep-19 03:28N 52°28' E 004°36'0 0.0
2017-Sep-19 02:58N 52°28' E 004°36'0 0.0
2017-Sep-19 02:28N 52°28' E 004°36'0 0.0
2017-Sep-19 01:55N 52°28' E 004°36'0 0.0
2017-Sep-19 01:28N 52°28' E 004°36'0 0.0
2017-Sep-19 00:58N 52°28' E 004°36'0 0.0
2017-Sep-18 23:58N 52°28' E 004°36'0 0.0
2017-Sep-18 23:22N 52°28' E 004°36'0 0.0
2017-Sep-18 22:58N 52°28' E 004°36'0 0.0
2017-Sep-18 22:28N 52°28' E 004°36'0 0.0
2017-Sep-18 21:58N 52°28' E 004°36'0 0.0
2017-Sep-18 21:28N 52°28' E 004°36'0 0.0
2017-Sep-18 20:58N 52°28' E 004°36'0 0.0
2017-Sep-18 20:28N 52°28' E 004°36'0 0.0
2017-Sep-18 19:58N 52°28' E 004°36'0 0.0
2017-Sep-18 19:28N 52°28' E 004°36'0 0.0
2017-Sep-18 18:58N 52°28' E 004°36'0 0.0
2017-Sep-18 18:28N 52°28' E 004°36'0 0.0
2017-Sep-18 17:58N 52°28' E 004°36'0 0.0
2017-Sep-18 17:28N 52°28' E 004°36'0 0.0
2017-Sep-18 16:55N 52°28' E 004°36'0 0.0
2017-Sep-18 16:28N 52°28' E 004°36'0 0.0
2017-Sep-18 15:58N 52°28' E 004°36'0 0.0
2017-Sep-18 15:28N 52°28' E 004°36'0 0.0
2017-Sep-18 14:58N 52°28' E 004°36'0 0.0
2017-Sep-18 14:28N 52°28' E 004°36'0 0.5
2017-Sep-18 14:01N 52°28' E 004°36'3 5.9
2017-Sep-18 13:31N 52°28' E 004°31'4 8.8
2017-Sep-18 13:00N 52°28' E 004°24'3 6.0
2017-Sep-18 12:31N 52°28' E 004°19'3 6.0
2017-Sep-18 12:00N 52°28' E 004°14'3 5.4
2017-Sep-18 11:30N 52°28' E 004°10'0 0.2
2017-Sep-18 10:50N 52°28' E 004°09'0 0.0
2017-Sep-18 10:26N 52°28' E 004°09'0 0.0
2017-Sep-18 09:56N 52°28' E 004°09'0 0.0
2017-Sep-18 09:05N 52°28' E 004°09'0 0.0
2017-Sep-18 08:47N 52°28' E 004°09'0 0.0
2017-Sep-18 08:29N 52°28' E 004°09'0 0.0
2017-Sep-18 07:56N 52°28' E 004°09'0 0.0
2017-Sep-18 07:29N 52°28' E 004°09'0 0.0
2017-Sep-18 06:59N 52°28' E 004°09'0 0.0
2017-Sep-18 05:44N 52°28' E 004°09'0 0.1
2017-Sep-18 05:26N 52°28' E 004°09'0 0.1
2017-Sep-18 04:59N 52°28' E 004°09'0 0.1
2017-Sep-18 04:20N 52°28' E 004°09'0 0.1
2017-Sep-18 03:59N 52°28' E 004°09'0 0.0
2017-Sep-18 03:29N 52°28' E 004°09'0 0.0
2017-Sep-18 02:50N 52°28' E 004°09'0 0.0
2017-Sep-18 02:29N 52°28' E 004°09'0 0.0
2017-Sep-18 01:59N 52°28' E 004°09'0 0.0
2017-Sep-18 01:29N 52°28' E 004°09'0 0.0
2017-Sep-18 00:50N 52°28' E 004°09'0 0.0
2017-Sep-17 23:38N 52°28' E 004°09'0 0.1
2017-Sep-17 23:23N 52°28' E 004°09'0 0.1
2017-Sep-17 22:50N 52°28' E 004°09'0 0.1
2017-Sep-17 22:26N 52°27' E 004°09'0 0.0
2017-Sep-17 21:41N 52°27' E 004°09'0 0.0
2017-Sep-17 21:16N 52°27' E 004°09'0 0.0
2017-Sep-17 20:46N 52°27' E 004°09'0 0.0
2017-Sep-17 20:28N 52°27' E 004°09'0 0.0
2017-Sep-17 19:58N 52°28' E 004°09'0 0.0
2017-Sep-17 19:28N 52°28' E 004°09'0 0.1
2017-Sep-17 19:00N 52°28' E 004°09'2 4.9
2017-Sep-17 18:30N 52°28' E 004°05'4 8.1
2017-Sep-17 18:00N 52°27' E 003°59'79 9.8
2017-Sep-17 09:52N 51°34' E 002°22'410.5
2017-Sep-17 09:30N 51°31' E 002°18'510.1
2017-Sep-17 09:00N 51°27' E 002°14'5 9.6
2017-Sep-17 08:30N 51°23' E 002°11'5 9.5
2017-Sep-17 08:00N 51°18' E 002°08'5 9.0
2017-Sep-17 07:30N 51°14' E 002°05'4 8.7
2017-Sep-17 07:00N 51°12' E 001°59'4 8.0
2017-Sep-17 06:30N 51°10' E 001°54'4 7.5
2017-Sep-17 06:00N 51°07' E 001°49'3 6.9
2017-Sep-17 05:30N 51°05' E 001°45'3 6.7
2017-Sep-17 05:00N 51°02' E 001°42'3 6.6
2017-Sep-17 04:30N 50°60' E 001°38'3 6.6
2017-Sep-17 04:00N 50°57' E 001°35'3 6.4
2017-Sep-17 03:29N 50°55' E 001°32'3 6.4
2017-Sep-17 03:00N 50°52' E 001°29'61 8.1
2017-Sep-16 19:30N 50°19' E 000°09'117 8.9
2017-Sep-16 06:24N 49°49' W 002°47'4 9.3
2017-Sep-16 06:00N 49°47' W 002°52'8 9.5
2017-Sep-16 05:07N 49°43' W 003°03'1 9.6
2017-Sep-16 05:00N 49°43' W 003°05'5 9.7
2017-Sep-16 04:30N 49°41' W 003°12'5 9.7
2017-Sep-16 04:00N 49°38' W 003°18'79 8.3
2017-Sep-15 18:26N 48°58' W 005°03'3 6.6
2017-Sep-15 17:55N 48°57' W 005°08'3 6.3
2017-Sep-15 17:30N 48°56' W 005°11'3 6.3
2017-Sep-15 16:59N 48°54' W 005°15'4 6.5
2017-Sep-15 16:24N 48°52' W 005°20'42 6.2
2017-Sep-15 09:43N 48°12' W 005°38'6 7.8
2017-Sep-15 08:58N 48°07' W 005°35'8 7.8
2017-Sep-15 07:53N 47°59' W 005°31'7 7.9
2017-Sep-15 06:58N 47°52' W 005°28'  
Track history (hours):
 
Tides and Currents Weather Stations Pressure Air Temp Water Temp Dewpoint Dewpoint Depression Visibility Wind Speed Wind Dir Waves Ship Positions

Helas

Last reported at 2017-Sep-22 02:00 UTC. Time now 2017-Sep-24 17:56 UTC.
Position N 50°28' W 000°22'.

Length 89 m; draft 5.7 m.

Type: Cargo ship. MMSI: 210031000.

Date/timePositionNaut miles runAvg speedWind from/ knotsBaromVisibWave heightAir tempDewpointWater temp
2017-Sep-22 02:00N 50°28' W 000°22'510.4
2017-Sep-22 01:30N 50°30' W 000°14'5 9.9
2017-Sep-22 01:00N 50°31' W 000°07'5 9.3
2017-Sep-22 00:30N 50°32' E 000°00'4 8.6
2017-Sep-22 00:00N 50°34' E 000°07'4 7.9
2017-Sep-21 23:30N 50°34' E 000°13'4 7.4
2017-Sep-21 23:00N 50°36' E 000°19'3 6.8
2017-Sep-21 22:30N 50°37' E 000°24'3 6.3
2017-Sep-21 22:00N 50°38' E 000°29'3 6.4
2017-Sep-21 21:30N 50°38' E 000°33'3 6.9
2017-Sep-21 21:00N 50°40' E 000°38'4 7.5
2017-Sep-21 20:30N 50°42' E 000°43'4 8.3
2017-Sep-21 20:00N 50°45' E 000°48'5 9.3
2017-Sep-21 19:30N 50°47' E 000°54'2921.9
2017-Sep-21 18:12N 51°05' E 001°30'6 7.1
2017-Sep-21 17:19N 51°01' E 001°22'3 9.4
2017-Sep-21 17:00N 51°03' E 001°26'4 8.8
2017-Sep-21 16:30N 51°06' E 001°31'4 7.7
2017-Sep-21 16:00N 51°08' E 001°35'3 6.9
2017-Sep-21 15:30N 51°11' E 001°40'3 6.5
2017-Sep-21 15:00N 51°13' E 001°43'3 6.5
2017-Sep-21 14:30N 51°15' E 001°47'3 6.0
2017-Sep-21 14:00N 51°18' E 001°49'3 6.0
2017-Sep-21 13:30N 51°21' E 001°51'3 6.2
2017-Sep-21 13:00N 51°23' E 001°53'3 6.8
2017-Sep-21 12:30N 51°26' E 001°55'4 7.7
2017-Sep-21 12:00N 51°29' E 001°59'4 8.6
2017-Sep-21 11:30N 51°32' E 002°04'5 9.0
2017-Sep-21 11:00N 51°36' E 002°09'910.1
2017-Sep-21 10:05N 51°43' E 002°19'49 9.7
2017-Sep-21 04:57N 52°18' E 003°15'5 8.0
2017-Sep-21 04:22N 52°20' E 003°22'3 7.6
2017-Sep-21 03:59N 52°22' E 003°26'4 7.4
2017-Sep-21 03:28N 52°24' E 003°31'4 7.2
2017-Sep-21 02:58N 52°26' E 003°36'4 7.1
2017-Sep-21 02:26N 52°28' E 003°42'5 7.1
2017-Sep-21 01:44N 52°30' E 003°49'2 7.5
2017-Sep-21 01:27N 52°31' E 003°52'4 8.1
2017-Sep-21 01:00N 52°31' E 003°58'4 8.5
2017-Sep-21 00:29N 52°31' E 004°05'4 8.8
2017-Sep-21 00:00N 52°31' E 004°12'5 9.0
2017-Sep-20 23:28N 52°30' E 004°20'4 9.1
2017-Sep-20 23:00N 52°29' E 004°27'4 8.7
2017-Sep-20 22:30N 52°28' E 004°34'1 2.8
2017-Sep-20 22:00N 52°28' E 004°36'1 1.1
2017-Sep-20 21:31N 52°28' E 004°37'1 1.4
2017-Sep-20 21:00N 52°28' E 004°38'0 0.1
2017-Sep-20 20:29N 52°28' E 004°38'0 0.0
2017-Sep-20 19:59N 52°28' E 004°38'0 0.0
2017-Sep-20 19:29N 52°28' E 004°38'0 0.0
2017-Sep-20 18:59N 52°28' E 004°38'0 0.0
2017-Sep-20 18:29N 52°28' E 004°38'0 0.0
2017-Sep-20 17:59N 52°28' E 004°38'0 0.0
2017-Sep-20 17:26N 52°28' E 004°38'0 0.0
2017-Sep-20 16:59N 52°28' E 004°38'0 0.0
2017-Sep-20 16:29N 52°28' E 004°38'0 0.0
2017-Sep-20 15:59N 52°28' E 004°38'0 0.0
2017-Sep-20 15:29N 52°28' E 004°38'0 0.0
2017-Sep-20 14:56N 52°28' E 004°38'0 0.0
2017-Sep-20 13:59N 52°28' E 004°38'0 0.0
2017-Sep-20 13:29N 52°28' E 004°38'0 0.0
2017-Sep-20 12:59N 52°28' E 004°38'0 0.0
2017-Sep-20 12:29N 52°28' E 004°38'0 0.0
2017-Sep-20 11:59N 52°28' E 004°38'0 0.0
2017-Sep-20 11:29N 52°28' E 004°38'0 0.0
2017-Sep-20 10:56N 52°28' E 004°38'0 0.0
2017-Sep-20 10:29N 52°28' E 004°38'0 0.0
2017-Sep-20 09:56N 52°28' E 004°38'0 0.0
2017-Sep-20 09:29N 52°28' E 004°38'0 0.0
2017-Sep-20 08:59N 52°28' E 004°38'0 0.0
2017-Sep-20 08:29N 52°28' E 004°38'0 0.0
2017-Sep-20 07:59N 52°28' E 004°38'0 0.0
2017-Sep-20 07:29N 52°28' E 004°38'0 0.0
2017-Sep-20 06:59N 52°28' E 004°38'0 0.0
2017-Sep-20 06:28N 52°28' E 004°38'0 0.0
2017-Sep-20 05:58N 52°28' E 004°38'0 0.0
2017-Sep-20 05:25N 52°28' E 004°38'0 0.0
2017-Sep-20 04:58N 52°28' E 004°38'0 0.0
2017-Sep-20 04:28N 52°28' E 004°38'0 0.0
2017-Sep-20 03:58N 52°28' E 004°38'0 0.0
2017-Sep-20 03:28N 52°28' E 004°38'0 0.0
2017-Sep-20 02:55N 52°28' E 004°38'0 0.0
2017-Sep-20 02:28N 52°28' E 004°38'0 0.0
2017-Sep-20 01:58N 52°28' E 004°38'0 0.0
2017-Sep-20 01:28N 52°28' E 004°38'0 0.0
2017-Sep-20 00:58N 52°28' E 004°38'0 0.0
2017-Sep-20 00:28N 52°28' E 004°38'0 0.0
2017-Sep-19 23:58N 52°28' E 004°38'0 0.0
2017-Sep-19 23:28N 52°28' E 004°38'0 0.0
2017-Sep-19 22:58N 52°28' E 004°38'0 0.0
2017-Sep-19 22:28N 52°28' E 004°38'0 0.0
2017-Sep-19 21:58N 52°28' E 004°38'0 0.0
2017-Sep-19 21:28N 52°28' E 004°38'0 0.0
2017-Sep-19 20:58N 52°28' E 004°38'0 0.0
2017-Sep-19 20:25N 52°28' E 004°38'0 0.0
2017-Sep-19 19:58N 52°28' E 004°38'0 0.0
2017-Sep-19 18:56N 52°28' E 004°38'0 0.0
2017-Sep-19 18:29N 52°28' E 004°38'0 0.0
2017-Sep-19 17:59N 52°28' E 004°38'0 0.0
2017-Sep-19 17:29N 52°28' E 004°38'0 0.0
2017-Sep-19 16:59N 52°28' E 004°38'0 0.0
2017-Sep-19 16:29N 52°28' E 004°38'0 0.0
2017-Sep-19 15:59N 52°28' E 004°38'0 0.0
2017-Sep-19 15:29N 52°28' E 004°38'0 0.0
2017-Sep-19 14:56N 52°28' E 004°38'0 0.0
2017-Sep-19 14:28N 52°28' E 004°38'0 0.0
2017-Sep-19 13:58N 52°28' E 004°38'0 0.0
2017-Sep-19 13:28N 52°28' E 004°38'0 0.0
2017-Sep-19 12:58N 52°28' E 004°38'0 0.0
2017-Sep-19 12:28N 52°28' E 004°38'0 0.0
2017-Sep-19 11:58N 52°28' E 004°38'0 0.0
2017-Sep-19 11:28N 52°28' E 004°38'0 0.0
2017-Sep-19 10:55N 52°28' E 004°38'0 0.0
2017-Sep-19 10:28N 52°28' E 004°38'0 0.0
2017-Sep-19 09:58N 52°28' E 004°38'0 0.0
2017-Sep-19 09:28N 52°28' E 004°38'0 0.0
2017-Sep-19 08:58N 52°28' E 004°38'0 0.0
2017-Sep-19 08:28N 52°28' E 004°38'0 0.0
2017-Sep-19 07:55N 52°28' E 004°38'0 1.2
2017-Sep-19 07:30N 52°28' E 004°37'1 1.9
2017-Sep-19 07:01N 52°28' E 004°36'1 1.0
2017-Sep-19 06:28N 52°28' E 004°36'0 0.0
2017-Sep-19 05:58N 52°28' E 004°36'0 0.0
2017-Sep-19 05:28N 52°28' E 004°36'0 0.0
2017-Sep-19 04:58N 52°28' E 004°36'0 0.0
2017-Sep-19 04:28N 52°28' E 004°36'0 0.0
2017-Sep-19 03:58N 52°28' E 004°36'0 0.0
2017-Sep-19 03:28N 52°28' E 004°36'0 0.0
2017-Sep-19 02:58N 52°28' E 004°36'0 0.0
2017-Sep-19 02:28N 52°28' E 004°36'0 0.0
2017-Sep-19 01:55N 52°28' E 004°36'0 0.0
2017-Sep-19 01:28N 52°28' E 004°36'0 0.0
2017-Sep-19 00:58N 52°28' E 004°36'0 0.0
2017-Sep-18 23:58N 52°28' E 004°36'0 0.0
2017-Sep-18 23:22N 52°28' E 004°36'0 0.0
2017-Sep-18 22:58N 52°28' E 004°36'0 0.0
2017-Sep-18 22:28N 52°28' E 004°36'0 0.0
2017-Sep-18 21:58N 52°28' E 004°36'0 0.0
2017-Sep-18 21:28N 52°28' E 004°36'0 0.0
2017-Sep-18 20:58N 52°28' E 004°36'0 0.0
2017-Sep-18 20:28N 52°28' E 004°36'0 0.0
2017-Sep-18 19:58N 52°28' E 004°36'0 0.0
2017-Sep-18 19:28N 52°28' E 004°36'0 0.0
2017-Sep-18 18:58N 52°28' E 004°36'0 0.0
2017-Sep-18 18:28N 52°28' E 004°36'0 0.0
2017-Sep-18 17:58N 52°28' E 004°36'0 0.0
2017-Sep-18 17:28N 52°28' E 004°36'0 0.0
2017-Sep-18 16:55N 52°28' E 004°36'0 0.0
2017-Sep-18 16:28N 52°28' E 004°36'0 0.0
2017-Sep-18 15:58N 52°28' E 004°36'0 0.0
2017-Sep-18 15:28N 52°28' E 004°36'0 0.0
2017-Sep-18 14:58N 52°28' E 004°36'0 0.0
2017-Sep-18 14:28N 52°28' E 004°36'0 0.5
2017-Sep-18 14:01N 52°28' E 004°36'3 5.9
2017-Sep-18 13:31N 52°28' E 004°31'4 8.8
2017-Sep-18 13:00N 52°28' E 004°24'3 6.0
2017-Sep-18 12:31N 52°28' E 004°19'3 6.0
2017-Sep-18 12:00N 52°28' E 004°14'3 5.4
2017-Sep-18 11:30N 52°28' E 004°10'0 0.2
2017-Sep-18 10:50N 52°28' E 004°09'0 0.0
2017-Sep-18 10:26N 52°28' E 004°09'0 0.0
2017-Sep-18 09:56N 52°28' E 004°09'0 0.0
2017-Sep-18 09:05N 52°28' E 004°09'0 0.0
2017-Sep-18 08:47N 52°28' E 004°09'0 0.0
2017-Sep-18 08:29N 52°28' E 004°09'0 0.0
2017-Sep-18 07:56N 52°28' E 004°09'0 0.0
2017-Sep-18 07:29N 52°28' E 004°09'0 0.0
2017-Sep-18 06:59N 52°28' E 004°09'0 0.0
2017-Sep-18 05:44N 52°28' E 004°09'0 0.1
2017-Sep-18 05:26N 52°28' E 004°09'0 0.1
2017-Sep-18 04:59N 52°28' E 004°09'0 0.1
2017-Sep-18 04:20N 52°28' E 004°09'0 0.1
2017-Sep-18 03:59N 52°28' E 004°09'0 0.0
2017-Sep-18 03:29N 52°28' E 004°09'0 0.0
2017-Sep-18 02:50N 52°28' E 004°09'0 0.0
2017-Sep-18 02:29N 52°28' E 004°09'0 0.0
2017-Sep-18 01:59N 52°28' E 004°09'0 0.0
2017-Sep-18 01:29N 52°28' E 004°09'0 0.0
2017-Sep-18 00:50N 52°28' E 004°09'0 0.0
2017-Sep-17 23:38N 52°28' E 004°09'0 0.1
2017-Sep-17 23:23N 52°28' E 004°09'0 0.1
2017-Sep-17 22:50N 52°28' E 004°09'0 0.1
2017-Sep-17 22:26N 52°27' E 004°09'0 0.0
2017-Sep-17 21:41N 52°27' E 004°09'0 0.0
2017-Sep-17 21:16N 52°27' E 004°09'0 0.0
2017-Sep-17 20:46N 52°27' E 004°09'0 0.0
2017-Sep-17 20:28N 52°27' E 004°09'0 0.0
2017-Sep-17 19:58N 52°28' E 004°09'0 0.0
2017-Sep-17 19:28N 52°28' E 004°09'0 0.1
2017-Sep-17 19:00N 52°28' E 004°09'2 4.9
2017-Sep-17 18:30N 52°28' E 004°05'4 8.1
2017-Sep-17 18:00N 52°27' E 003°59'79 9.8
2017-Sep-17 09:52N 51°34' E 002°22'410.5
2017-Sep-17 09:30N 51°31' E 002°18'510.1
2017-Sep-17 09:00N 51°27' E 002°14'5 9.6
2017-Sep-17 08:30N 51°23' E 002°11'5 9.5
2017-Sep-17 08:00N 51°18' E 002°08'5 9.0
2017-Sep-17 07:30N 51°14' E 002°05'4 8.7
2017-Sep-17 07:00N 51°12' E 001°59'4 8.0
2017-Sep-17 06:30N 51°10' E 001°54'4 7.5
2017-Sep-17 06:00N 51°07' E 001°49'3 6.9
2017-Sep-17 05:30N 51°05' E 001°45'3 6.7
2017-Sep-17 05:00N 51°02' E 001°42'3 6.6
2017-Sep-17 04:30N 50°60' E 001°38'3 6.6
2017-Sep-17 04:00N 50°57' E 001°35'3 6.4
2017-Sep-17 03:29N 50°55' E 001°32'3 6.4
2017-Sep-17 03:00N 50°52' E 001°29'61 8.1
2017-Sep-16 19:30N 50°19' E 000°09'117 8.9
2017-Sep-16 06:24N 49°49' W 002°47'4 9.3
2017-Sep-16 06:00N 49°47' W 002°52'8 9.5
2017-Sep-16 05:07N 49°43' W 003°03'1 9.6
2017-Sep-16 05:00N 49°43' W 003°05'5 9.7
2017-Sep-16 04:30N 49°41' W 003°12'5 9.7
2017-Sep-16 04:00N 49°38' W 003°18'79 8.3
2017-Sep-15 18:26N 48°58' W 005°03'3 6.6
2017-Sep-15 17:55N 48°57' W 005°08'3 6.3
2017-Sep-15 17:30N 48°56' W 005°11'3 6.3
2017-Sep-15 16:59N 48°54' W 005°15'4 6.5
2017-Sep-15 16:24N 48°52' W 005°20'42 6.2
2017-Sep-15 09:43N 48°12' W 005°38'6 7.8
2017-Sep-15 08:58N 48°07' W 005°35'8 7.8
2017-Sep-15 07:53N 47°59' W 005°31'7 7.9
2017-Sep-15 06:58N 47°52' W 005°28'  

Dump ship's entire track history